createdAt,value
2022-11-28T00:01:50.048Z,15.57
2022-11-28T00:04:53.392Z,10.02
2022-11-28T00:07:55.873Z,13.57
2022-11-28T00:10:59.037Z,13.70
2022-11-28T00:14:01.665Z,16.12
2022-11-28T00:17:04.439Z,15.60
2022-11-28T00:20:07.590Z,13.68
2022-11-28T00:23:10.819Z,10.40
2022-11-28T00:26:16.961Z,13.70
2022-11-28T00:29:19.982Z,13.77
2022-11-28T00:32:22.590Z,13.40
2022-11-28T00:35:25.393Z,14.05
2022-11-28T00:38:28.144Z,13.77
2022-11-28T00:41:31.514Z,13.63
2022-11-28T00:44:34.040Z,12.32
2022-11-28T00:47:36.822Z,13.80
2022-11-28T00:50:39.293Z,13.10
2022-11-28T00:53:44.014Z,15.35
2022-11-28T00:56:46.480Z,15.00
2022-11-28T00:59:49.284Z,13.32
2022-11-28T01:02:52.268Z,14.87
2022-11-28T01:05:55.131Z,15.18
2022-11-28T01:09:03.275Z,7.62
2022-11-28T01:12:06.210Z,14.20
2022-11-28T01:15:11.690Z,14.57
2022-11-28T01:18:14.495Z,14.18
2022-11-28T01:21:17.552Z,7.78
2022-11-28T01:24:20.297Z,13.65
2022-11-28T01:27:22.792Z,14.37
2022-11-28T01:30:28.726Z,15.25
2022-11-28T01:33:31.146Z,14.05
2022-11-28T01:36:34.260Z,13.62
2022-11-28T01:39:37.910Z,12.45
2022-11-28T01:42:40.709Z,14.33
2022-11-28T01:45:43.495Z,14.77
2022-11-28T01:48:46.273Z,14.05
2022-11-28T01:51:51.569Z,14.27
2022-11-28T01:54:58.144Z,13.40
2022-11-28T01:58:00.986Z,12.37
2022-11-28T02:01:04.549Z,10.30
2022-11-28T02:04:07.472Z,11.57
2022-11-28T02:07:10.025Z,11.32
2022-11-28T02:10:32.058Z,16.15
2022-11-28T02:13:56.768Z,15.03
2022-11-28T02:17:40.944Z,12.77
2022-11-28T02:21:16.797Z,10.40
2022-11-28T02:24:41.570Z,10.32
2022-11-28T02:28:26.048Z,11.85
2022-11-28T02:31:41.229Z,11.07
2022-11-28T02:35:02.411Z,12.55
2022-11-28T02:38:17.018Z,11.75
2022-11-28T02:41:35.611Z,10.32
2022-11-28T02:44:56.210Z,14.18
2022-11-28T02:48:08.877Z,11.37
2022-11-28T02:51:13.773Z,10.48
2022-11-28T02:54:18.306Z,11.98
2022-11-28T02:57:21.262Z,14.77
2022-11-28T03:00:29.513Z,11.93
2022-11-28T03:03:41.356Z,14.00
2022-11-28T03:06:54.438Z,10.95
2022-11-28T03:10:25.411Z,14.50
2022-11-28T03:13:47.814Z,13.82
2022-11-28T03:17:02.364Z,13.35
2022-11-28T03:20:26.888Z,13.60
2022-11-28T03:23:44.851Z,13.20
2022-11-28T03:27:03.304Z,13.20
2022-11-28T03:30:12.323Z,11.75
2022-11-28T03:33:16.543Z,9.75
2022-11-28T03:36:26.813Z,10.17
2022-11-28T03:39:34.015Z,13.20
2022-11-28T03:42:42.579Z,11.75
2022-11-28T03:45:52.392Z,9.90
2022-11-28T03:48:57.754Z,10.57
2022-11-28T03:52:16.146Z,13.10
2022-11-28T03:55:30.829Z,10.90
2022-11-28T03:59:21.260Z,11.38
2022-11-28T04:02:36.341Z,10.05
2022-11-28T04:05:46.751Z,8.70
2022-11-28T04:08:56.494Z,9.10
2022-11-28T04:12:07.792Z,7.45
2022-11-28T04:15:15.279Z,10.98
2022-11-28T04:18:28.167Z,9.57
2022-11-28T04:21:40.701Z,6.57
2022-11-28T04:24:50.488Z,12.33
2022-11-28T04:28:05.514Z,8.65
2022-11-28T04:31:08.911Z,11.38
2022-11-28T04:34:14.804Z,12.20
2022-11-28T04:37:18.591Z,7.32
2022-11-28T04:40:23.311Z,12.53
2022-11-28T04:43:36.036Z,12.48
2022-11-28T04:46:50.282Z,11.57
2022-11-28T04:49:54.037Z,10.00
2022-11-28T04:53:01.803Z,12.45
2022-11-28T04:56:12.431Z,10.30
2022-11-28T04:59:15.456Z,7.97
2022-11-28T05:02:19.350Z,11.93
2022-11-28T05:05:24.592Z,12.55
2022-11-28T05:08:27.391Z,11.23
2022-11-28T05:11:30.951Z,11.30
2022-11-28T05:14:33.719Z,11.38
2022-11-28T05:17:41.677Z,12.85
2022-11-28T05:20:45.059Z,10.80
2022-11-28T05:23:48.230Z,10.57
2022-11-28T05:26:51.554Z,10.57
2022-11-28T05:29:54.347Z,8.57
2022-11-28T05:32:58.722Z,14.13
2022-11-28T05:36:09.888Z,9.70
2022-11-28T05:39:15.370Z,11.38
2022-11-28T05:42:18.026Z,15.20
2022-11-28T05:45:20.917Z,13.75
2022-11-28T05:48:24.503Z,19.37
2022-11-28T05:51:27.248Z,9.30
2022-11-28T05:54:30.706Z,10.13
2022-11-28T05:57:37.057Z,11.37
2022-11-28T06:00:42.050Z,9.40
2022-11-28T06:03:45.365Z,11.10
2022-11-28T06:06:50.202Z,12.02
2022-11-28T06:09:53.174Z,12.35
2022-11-28T06:12:55.622Z,9.03
2022-11-28T06:15:58.431Z,13.02
2022-11-28T06:19:02.914Z,11.10
2022-11-28T06:22:06.191Z,11.15
2022-11-28T06:25:08.774Z,11.70
2022-11-28T06:28:11.972Z,11.63
2022-11-28T06:31:18.075Z,9.20
2022-11-28T06:34:20.919Z,13.80
2022-11-28T06:37:23.394Z,12.15
2022-11-28T06:40:28.260Z,10.45
2022-11-28T06:43:31.055Z,13.70
2022-11-28T06:46:33.867Z,10.00
2022-11-28T06:49:37.012Z,10.82
2022-11-28T06:52:40.038Z,10.63
2022-11-28T06:55:43.012Z,13.85
2022-11-28T06:58:46.461Z,11.30
2022-11-28T07:01:49.580Z,9.60
2022-11-28T07:04:52.707Z,7.50
2022-11-28T07:07:55.291Z,9.65
2022-11-28T07:10:58.949Z,10.95
2022-11-28T07:14:02.167Z,8.23
2022-11-28T07:17:05.421Z,10.25
2022-11-28T07:20:08.905Z,9.20
2022-11-28T07:23:11.830Z,10.02
2022-11-28T07:26:17.450Z,6.15
2022-11-28T07:29:20.485Z,8.43
2022-11-28T07:32:23.235Z,7.95
2022-11-28T07:35:26.063Z,6.07
2022-11-28T07:38:28.579Z,7.93
2022-11-28T07:41:31.777Z,8.75
2022-11-28T07:44:34.292Z,8.60
2022-11-28T07:47:37.432Z,7.50
2022-11-28T07:50:47.250Z,9.52
2022-11-28T07:53:51.369Z,6.25
2022-11-28T08:00:17.632Z,7.20
2022-11-28T08:03:23.364Z,8.60
2022-11-28T08:06:30.435Z,6.45
2022-11-28T08:09:37.839Z,7.28
2022-11-28T08:12:40.647Z,7.03
2022-11-28T08:15:43.888Z,8.17
2022-11-28T08:18:47.914Z,5.78
2022-11-28T08:21:51.877Z,6.37
2022-11-28T08:24:54.983Z,7.07
2022-11-28T08:27:58.576Z,7.68
2022-11-28T08:31:12.539Z,6.13
2022-11-28T08:34:15.836Z,10.45
2022-11-28T08:37:18.461Z,8.32
2022-11-28T08:40:22.156Z,8.13
2022-11-28T08:43:24.865Z,7.07
2022-11-28T08:46:27.859Z,8.63
2022-11-28T08:49:30.679Z,8.93
2022-11-28T08:52:33.491Z,10.25
2022-11-28T08:55:40.514Z,6.62
2022-11-28T08:58:44.837Z,7.68
2022-11-28T09:01:47.693Z,7.73
2022-11-28T09:04:50.717Z,7.95
2022-11-28T09:07:54.935Z,9.40
2022-11-28T09:10:58.293Z,8.32
2022-11-28T09:14:00.942Z,6.68
2022-11-28T09:17:03.818Z,7.50
2022-11-28T09:20:07.736Z,6.00
2022-11-28T09:23:10.607Z,8.10
2022-11-28T09:26:21.861Z,6.00
2022-11-28T09:29:24.753Z,6.18
2022-11-28T09:32:27.450Z,6.67
2022-11-28T09:35:30.698Z,6.80
2022-11-28T09:38:33.486Z,6.68
2022-11-28T09:41:51.258Z,6.37
2022-11-28T09:45:21.404Z,6.12
2022-11-28T09:48:51.081Z,4.97
2022-11-28T09:51:59.123Z,5.40
2022-11-28T09:55:20.451Z,8.32
2022-11-28T09:58:40.266Z,6.18
2022-11-28T10:01:53.509Z,7.75
2022-11-28T10:05:34.864Z,7.87
2022-11-28T10:08:40.384Z,4.68
2022-11-28T10:11:47.666Z,5.80
2022-11-28T10:14:50.166Z,6.55
2022-11-28T10:18:09.058Z,5.75
2022-11-28T10:21:59.458Z,5.33
2022-11-28T10:25:06.882Z,4.53
2022-11-28T10:28:26.446Z,5.00
2022-11-28T10:31:43.568Z,5.00
2022-11-28T10:34:59.293Z,6.40
2022-11-28T10:38:02.935Z,6.07
2022-11-28T10:41:28.881Z,5.12
2022-11-28T10:44:55.608Z,7.50
2022-11-28T10:48:29.532Z,3.60
2022-11-28T10:51:45.380Z,8.20
2022-11-28T10:55:18.987Z,6.57
2022-11-28T10:58:24.869Z,4.90
2022-11-28T11:01:30.168Z,4.78
2022-11-28T11:04:33.953Z,5.93
2022-11-28T11:07:36.560Z,4.28
2022-11-28T11:10:47.232Z,5.40
2022-11-28T11:14:06.598Z,6.60
2022-11-28T11:17:32.761Z,5.57
2022-11-28T11:20:40.600Z,7.32
2022-11-28T11:23:44.686Z,5.07
2022-11-28T11:26:48.696Z,5.17
2022-11-28T11:29:52.220Z,6.68
2022-11-28T11:32:56.699Z,5.40
2022-11-28T11:36:00.276Z,4.97
2022-11-28T11:39:12.517Z,5.20
2022-11-28T11:42:24.318Z,6.60
2022-11-28T11:45:34.417Z,5.22
2022-11-28T11:48:45.229Z,7.68
2022-11-28T11:51:56.219Z,5.97
2022-11-28T11:54:59.397Z,6.72
2022-11-28T11:58:05.861Z,6.90
2022-11-28T12:01:11.946Z,6.35
2022-11-28T12:04:45.171Z,5.32
2022-11-28T12:08:02.939Z,5.60
2022-11-28T12:11:23.722Z,4.68
2022-11-28T12:14:32.381Z,5.80
2022-11-28T12:18:03.411Z,6.93
2022-11-28T12:21:22.926Z,6.15
2022-11-28T12:25:00.730Z,5.30
2022-11-28T12:28:12.544Z,6.45
2022-11-28T12:31:37.115Z,7.03
2022-11-28T12:35:01.249Z,7.00
2022-11-28T12:38:19.857Z,8.10
2022-11-28T12:41:58.368Z,6.07
2022-11-28T12:45:19.313Z,7.45
2022-11-28T12:48:59.856Z,6.67
2022-11-28T12:52:18.064Z,5.20
2022-11-28T12:55:26.411Z,6.25
2022-11-28T12:59:08.014Z,6.80
2022-11-28T13:02:16.544Z,5.47
2022-11-28T13:05:43.892Z,7.80
2022-11-28T13:09:25.458Z,8.13
2022-11-28T13:12:56.595Z,9.48
2022-11-28T13:16:05.376Z,8.45
2022-11-28T13:19:37.843Z,11.27
2022-11-28T13:23:09.103Z,9.63
2022-11-28T13:26:30.527Z,8.77
2022-11-28T13:29:52.141Z,8.13
2022-11-28T13:33:07.340Z,10.43
2022-11-28T13:39:45.586Z,8.43
2022-11-28T13:43:14.432Z,9.90
2022-11-28T13:46:17.286Z,9.57
2022-11-28T13:49:24.159Z,8.57
2022-11-28T13:52:29.384Z,11.20
2022-11-28T13:55:39.204Z,11.93
2022-11-28T13:59:04.582Z,9.93
2022-11-28T14:02:36.853Z,9.57
2022-11-28T14:05:41.653Z,9.57
2022-11-28T14:08:46.754Z,9.45
2022-11-28T14:12:03.051Z,11.00
2022-11-28T14:15:29.801Z,13.32
2022-11-28T14:18:59.132Z,12.43
2022-11-28T14:22:07.851Z,11.45
2022-11-28T14:25:19.635Z,10.68
2022-11-28T14:28:28.047Z,10.87
2022-11-28T14:31:40.334Z,12.13
2022-11-28T14:34:49.800Z,12.50
2022-11-28T14:37:55.496Z,13.43
2022-11-28T14:41:11.942Z,14.02
2022-11-28T14:44:52.100Z,22.67
2022-11-28T14:48:15.969Z,37.63
2022-11-28T14:51:19.833Z,32.25
2022-11-28T14:54:29.140Z,22.48
2022-11-28T14:57:36.120Z,19.62
2022-11-28T15:00:55.391Z,16.37
2022-11-28T15:04:23.114Z,14.55
2022-11-28T15:07:54.601Z,13.65
2022-11-28T15:11:17.596Z,13.48
2022-11-28T15:14:22.409Z,15.18
2022-11-28T15:17:30.856Z,13.23
2022-11-28T15:20:37.618Z,14.27
2022-11-28T15:23:40.645Z,15.65
2022-11-28T15:26:43.125Z,15.05
2022-11-28T15:29:55.125Z,15.43
2022-11-28T15:33:00.726Z,13.73
2022-11-28T15:36:23.027Z,12.63
2022-11-28T15:39:32.104Z,12.82
2022-11-28T15:42:35.977Z,12.40
2022-11-28T15:45:40.022Z,10.88
2022-11-28T15:48:51.118Z,11.20
2022-11-28T15:51:55.887Z,14.98
2022-11-28T15:54:58.784Z,18.83
2022-11-28T15:58:30.482Z,16.30
2022-11-28T16:01:33.969Z,15.93
2022-11-28T16:04:38.216Z,17.87
2022-11-28T16:07:44.696Z,16.98
2022-11-28T16:10:48.116Z,20.58
2022-11-28T16:13:52.020Z,16.65
2022-11-28T16:16:58.834Z,14.98
2022-11-28T16:20:02.682Z,12.90
2022-11-28T16:23:14.948Z,10.32
2022-11-28T16:26:33.481Z,12.07
2022-11-28T16:29:36.754Z,10.13
2022-11-28T16:32:40.344Z,12.05
2022-11-28T16:35:43.217Z,10.67
2022-11-28T16:38:47.348Z,11.93
2022-11-28T16:42:04.453Z,10.05
2022-11-28T16:45:18.578Z,13.30
2022-11-28T16:48:21.848Z,12.77
2022-11-28T16:51:30.671Z,12.67
2022-11-28T16:54:33.450Z,7.53
2022-11-28T16:57:46.623Z,12.13
2022-11-28T17:01:00.898Z,9.07
2022-11-28T17:04:04.234Z,12.45
2022-11-28T17:07:11.102Z,10.17
2022-11-28T17:10:14.322Z,15.35
2022-11-28T17:13:17.544Z,12.93
2022-11-28T17:16:22.366Z,12.00
2022-11-28T17:19:25.692Z,8.52
2022-11-28T17:22:44.109Z,9.70
2022-11-28T17:25:47.486Z,10.60
2022-11-28T17:28:50.437Z,8.85
2022-11-28T17:31:55.282Z,9.73
2022-11-28T17:34:59.953Z,9.38
2022-11-28T17:38:03.302Z,10.70
2022-11-28T17:41:13.411Z,9.88
2022-11-28T17:44:21.848Z,7.90
2022-11-28T17:47:24.618Z,11.25
2022-11-28T17:50:28.430Z,12.77
2022-11-28T17:53:31.161Z,10.00
2022-11-28T17:56:34.200Z,11.43
2022-11-28T17:59:37.699Z,12.95
2022-11-28T18:02:42.339Z,12.37
2022-11-28T18:05:47.582Z,13.48
2022-11-28T18:08:50.983Z,11.60
2022-11-28T18:11:54.301Z,12.40
2022-11-28T18:14:59.013Z,10.18
2022-11-28T18:18:03.903Z,14.13
2022-11-28T18:21:08.792Z,12.77
2022-11-28T18:24:11.619Z,12.57
2022-11-28T18:27:14.605Z,12.70
2022-11-28T18:30:18.924Z,13.38
2022-11-28T18:33:21.748Z,11.80
2022-11-28T18:36:27.190Z,12.52
2022-11-28T18:39:31.358Z,10.73
2022-11-28T18:42:34.580Z,12.40
2022-11-28T18:45:38.476Z,10.65
2022-11-28T18:48:45.633Z,11.93
2022-11-28T18:51:48.629Z,11.80
2022-11-28T18:54:51.655Z,10.83
2022-11-28T18:57:54.369Z,10.65
2022-11-28T19:00:58.130Z,10.75
2022-11-28T19:04:03.511Z,11.07
2022-11-28T19:07:06.627Z,11.38
2022-11-28T19:10:09.826Z,11.97
2022-11-28T19:13:13.003Z,11.25
2022-11-28T19:16:18.461Z,10.95
2022-11-28T19:19:22.776Z,11.00
2022-11-28T19:22:26.767Z,10.55
2022-11-28T19:25:29.621Z,11.83
2022-11-28T19:28:32.360Z,7.22
2022-11-28T19:31:36.887Z,9.57
2022-11-28T19:34:39.929Z,9.07
2022-11-28T19:37:43.017Z,8.82
2022-11-28T19:40:45.793Z,7.37
2022-11-28T19:43:48.873Z,11.15
2022-11-28T19:46:52.955Z,10.43
2022-11-28T19:49:56.187Z,11.43
2022-11-28T19:52:58.983Z,10.55
2022-11-28T19:56:07.188Z,9.40
2022-11-28T19:59:10.998Z,10.88
2022-11-28T20:02:14.733Z,11.85
2022-11-28T20:05:18.644Z,11.95
2022-11-28T20:08:22.893Z,11.32
2022-11-28T20:11:36.063Z,10.57
2022-11-28T20:14:39.375Z,10.98
2022-11-28T20:17:42.212Z,12.45
2022-11-28T20:20:44.946Z,11.52
2022-11-28T20:23:51.446Z,12.52
2022-11-28T20:26:54.204Z,10.90
2022-11-28T20:29:57.395Z,11.32
2022-11-28T20:33:00.362Z,11.23
2022-11-28T20:36:11.827Z,11.82
2022-11-28T20:39:14.804Z,10.20
2022-11-28T20:42:17.907Z,10.73
2022-11-28T20:45:20.701Z,9.43
2022-11-28T20:48:23.819Z,13.20
2022-11-28T20:51:28.514Z,11.38
2022-11-28T20:54:31.575Z,10.68
2022-11-28T20:57:34.019Z,8.07
2022-11-28T21:00:36.802Z,12.77
2022-11-28T21:03:39.537Z,11.23
2022-11-28T21:06:44.046Z,11.70
2022-11-28T21:09:47.033Z,11.95
2022-11-28T21:12:50.183Z,12.30
2022-11-28T21:15:53.653Z,14.35
2022-11-28T21:18:57.855Z,13.65
2022-11-28T21:22:00.586Z,13.88
2022-11-28T21:25:03.556Z,14.10
2022-11-28T21:28:06.522Z,12.80
2022-11-28T21:31:14.658Z,11.50
2022-11-28T21:34:17.817Z,12.70
2022-11-28T21:37:20.680Z,12.88
2022-11-28T21:40:23.510Z,12.48
2022-11-28T21:43:28.295Z,11.97
2022-11-28T21:46:30.917Z,13.80
2022-11-28T21:49:33.963Z,14.27
2022-11-28T21:52:37.091Z,11.75
2022-11-28T21:55:39.888Z,13.27
2022-11-28T21:58:42.627Z,11.87
2022-11-28T22:01:45.607Z,11.95
2022-11-28T22:04:48.523Z,9.25
2022-11-28T22:07:51.133Z,10.55
2022-11-28T22:10:54.023Z,13.43
2022-11-28T22:13:56.663Z,11.40
2022-11-28T22:16:59.701Z,10.85
2022-11-28T22:20:02.396Z,13.35
2022-11-28T22:23:05.917Z,12.90
2022-11-28T22:26:08.952Z,13.02
2022-11-28T22:29:11.726Z,11.67
2022-11-28T22:32:15.578Z,9.93
2022-11-28T22:35:18.398Z,10.95
2022-11-28T22:38:20.923Z,11.32
2022-11-28T22:41:28.803Z,10.10
2022-11-28T22:44:33.679Z,11.17
2022-11-28T22:47:37.097Z,12.32
2022-11-28T22:50:40.888Z,10.63
2022-11-28T22:53:44.249Z,10.98
2022-11-28T22:56:46.858Z,10.63
2022-11-28T22:59:49.740Z,11.33
2022-11-28T23:02:52.663Z,12.45
2022-11-28T23:05:55.697Z,11.77
2022-11-28T23:08:59.592Z,10.13
2022-11-28T23:12:03.649Z,11.52
2022-11-28T23:15:07.179Z,11.80
2022-11-28T23:18:09.984Z,12.07
2022-11-28T23:21:13.329Z,12.43
2022-11-28T23:24:18.681Z,9.48
2022-11-28T23:27:21.404Z,10.40
2022-11-28T23:30:25.443Z,10.03
2022-11-28T23:33:27.961Z,8.65
2022-11-28T23:36:42.964Z,9.70
2022-11-28T23:39:46.395Z,8.40
2022-11-28T23:42:49.590Z,8.55
2022-11-28T23:45:52.120Z,9.50
2022-11-28T23:48:55.237Z,8.15
2022-11-28T23:51:57.779Z,7.35
2022-11-28T23:55:00.600Z,8.73
2022-11-28T23:58:03.093Z,11.45
